sensor_id;sensor_type;location;lat;lon;timestamp;pressure;altitude;pressure_sealevel;temperature;humidity
9139;BME280;4604;48.616;9.548;2023-05-03T00:01:29;97669.47;;;8.12;100.00
9139;BME280;4604;48.616;9.548;2023-05-03T00:03:57;97668.84;;;8.09;100.00
9139;BME280;4604;48.616;9.548;2023-05-03T00:06:24;97667.91;;;8.10;100.00
9139;BME280;4604;48.616;9.548;2023-05-03T00:08:51;97667.03;;;8.09;100.00
9139;BME280;4604;48.616;9.548;2023-05-03T00:11:17;97671.06;;;8.02;100.00
9139;BME280;4604;48.616;9.548;2023-05-03T00:13:45;97673.34;;;7.94;100.00
9139;BME280;4604;48.616;9.548;2023-05-03T00:16:12;97664.84;;;7.90;100.00
9139;BME280;4604;48.616;9.548;2023-05-03T00:18:38;97665.03;;;7.87;100.00
9139;BME280;4604;48.616;9.548;2023-05-03T00:21:06;97665.47;;;7.81;100.00
9139;BME280;4604;48.616;9.548;2023-05-03T00:23:33;97671.78;;;7.79;100.00
9139;BME280;4604;48.616;9.548;2023-05-03T00:26:00;97667.03;;;7.71;100.00
9139;BME280;4604;48.616;9.548;2023-05-03T00:28:26;97669.66;;;7.71;100.00
9139;BME280;4604;48.616;9.548;2023-05-03T00:30:53;97665.34;;;7.70;100.00
9139;BME280;4604;48.616;9.548;2023-05-03T00:33:19;97664.81;;;7.65;100.00
9139;BME280;4604;48.616;9.548;2023-05-03T00:35:46;97651.66;;;7.65;100.00
9139;BME280;4604;48.616;9.548;2023-05-03T00:38:14;97663.22;;;7.62;100.00
9139;BME280;4604;48.616;9.548;2023-05-03T00:40:41;97659.53;;;7.52;100.00
9139;BME280;4604;48.616;9.548;2023-05-03T00:43:10;97660.69;;;7.48;100.00
9139;BME280;4604;48.616;9.548;2023-05-03T00:45:37;97652.06;;;7.46;100.00
9139;BME280;4604;48.616;9.548;2023-05-03T00:48:06;97643.84;;;7.38;100.00
9139;BME280;4604;48.616;9.548;2023-05-03T00:50:35;97652.38;;;7.41;100.00
9139;BME280;4604;48.616;9.548;2023-05-03T00:53:02;97651.34;;;7.44;100.00
9139;BME280;4604;48.616;9.548;2023-05-03T00:55:31;97650.59;;;7.42;100.00
9139;BME280;4604;48.616;9.548;2023-05-03T00:57:58;97655.09;;;7.40;100.00
9139;BME280;4604;48.616;9.548;2023-05-03T01:00:25;97647.22;;;7.40;100.00
9139;BME280;4604;48.616;9.548;2023-05-03T01:02:53;97657.28;;;7.33;100.00
9139;BME280;4604;48.616;9.548;2023-05-03T01:05:21;97661.69;;;7.33;100.00
9139;BME280;4604;48.616;9.548;2023-05-03T01:07:55;97660.13;;;7.30;100.00
9139;BME280;4604;48.616;9.548;2023-05-03T01:10:32;97659.38;;;7.28;100.00
9139;BME280;4604;48.616;9.548;2023-05-03T01:13:06;97658.00;;;7.22;100.00
9139;BME280;4604;48.616;9.548;2023-05-03T01:15:43;97656.50;;;7.18;100.00
9139;BME280;4604;48.616;9.548;2023-05-03T01:18:17;97655.88;;;7.15;100.00
9139;BME280;4604;48.616;9.548;2023-05-03T01:20:48;97660.59;;;7.10;100.00
9139;BME280;4604;48.616;9.548;2023-05-03T01:23:28;97658.88;;;7.08;100.00
9139;BME280;4604;48.616;9.548;2023-05-03T01:25:57;97644.84;;;7.10;100.00
9139;BME280;4604;48.616;9.548;2023-05-03T01:28:23;97648.06;;;7.00;100.00
9139;BME280;4604;48.616;9.548;2023-05-03T01:30:51;97645.72;;;6.96;100.00
9139;BME280;4604;48.616;9.548;2023-05-03T01:33:24;97642.44;;;6.92;100.00
9139;BME280;4604;48.616;9.548;2023-05-03T01:35:53;97644.00;;;6.95;100.00
9139;BME280;4604;48.616;9.548;2023-05-03T01:38:22;97647.69;;;6.92;100.00
9139;BME280;4604;48.616;9.548;2023-05-03T01:40:51;97646.09;;;6.90;100.00
9139;BME280;4604;48.616;9.548;2023-05-03T01:43:20;97641.88;;;6.87;100.00
9139;BME280;4604;48.616;9.548;2023-05-03T01:45:47;97640.22;;;6.86;100.00
9139;BME280;4604;48.616;9.548;2023-05-03T01:48:16;97639.19;;;6.89;100.00
9139;BME280;4604;48.616;9.548;2023-05-03T01:50:44;97635.91;;;6.85;100.00
9139;BME280;4604;48.616;9.548;2023-05-03T01:53:11;97625.72;;;6.80;100.00
9139;BME280;4604;48.616;9.548;2023-05-03T01:55:37;97635.72;;;6.88;100.00
9139;BME280;4604;48.616;9.548;2023-05-03T01:58:04;97632.22;;;6.88;100.00
9139;BME280;4604;48.616;9.548;2023-05-03T02:00:32;97633.09;;;6.88;100.00
9139;BME280;4604;48.616;9.548;2023-05-03T02:02:59;97626.06;;;6.89;100.00
9139;BME280;4604;48.616;9.548;2023-05-03T02:05:25;97622.41;;;6.91;100.00
9139;BME280;4604;48.616;9.548;2023-05-03T02:07:52;97621.25;;;6.95;100.00
9139;BME280;4604;48.616;9.548;2023-05-03T02:10:19;97621.16;;;6.97;100.00
9139;BME280;4604;48.616;9.548;2023-05-03T02:12:45;97617.78;;;6.95;100.00
9139;BME280;4604;48.616;9.548;2023-05-03T02:15:12;97626.50;;;6.95;100.00
9139;BME280;4604;48.616;9.548;2023-05-03T02:17:41;97622.94;;;6.96;100.00
9139;BME280;4604;48.616;9.548;2023-05-03T02:20:10;97627.34;;;6.96;100.00
9139;BME280;4604;48.616;9.548;2023-05-03T02:22:36;97631.75;;;6.95;100.00
9139;BME280;4604;48.616;9.548;2023-05-03T02:25:03;97618.72;;;6.94;100.00
9139;BME280;4604;48.616;9.548;2023-05-03T02:27:30;97617.22;;;6.90;100.00
9139;BME280;4604;48.616;9.548;2023-05-03T02:29:57;97626.16;;;6.87;100.00
9139;BME280;4604;48.616;9.548;2023-05-03T02:32:23;97615.84;;;6.84;100.00
9139;BME280;4604;48.616;9.548;2023-05-03T02:34:51;97625.72;;;6.80;100.00
9139;BME280;4604;48.616;9.548;2023-05-03T02:37:26;97630.31;;;6.77;100.00
9139;BME280;4604;48.616;9.548;2023-05-03T02:39:53;97623.28;;;6.77;100.00
9139;BME280;4604;48.616;9.548;2023-05-03T02:42:19;97619.72;;;6.78;100.00
9139;BME280;4604;48.616;9.548;2023-05-03T02:44:46;97623.38;;;6.76;100.00
9139;BME280;4604;48.616;9.548;2023-05-03T02:47:13;97620.78;;;6.76;100.00
9139;BME280;4604;48.616;9.548;2023-05-03T02:49:40;97618.16;;;6.76;100.00
9139;BME280;4604;48.616;9.548;2023-05-03T02:52:06;97623.09;;;6.80;100.00
9139;BME280;4604;48.616;9.548;2023-05-03T02:54:34;97622.06;;;6.83;100.00
9139;BME280;4604;48.616;9.548;2023-05-03T02:57:01;97614.91;;;6.85;100.00
9139;BME280;4604;48.616;9.548;2023-05-03T02:59:28;97628.22;;;6.82;100.00
9139;BME280;4604;48.616;9.548;2023-05-03T03:01:57;97620.16;;;6.85;100.00
9139;BME280;4604;48.616;9.548;2023-05-03T03:04:24;97612.09;;;6.88;100.00
9139;BME280;4604;48.616;9.548;2023-05-03T03:06:51;97612.84;;;6.90;100.00
9139;BME280;4604;48.616;9.548;2023-05-03T03:09:17;97625.09;;;6.90;100.00
9139;BME280;4604;48.616;9.548;2023-05-03T03:11:45;97628.69;;;6.89;100.00
9139;BME280;4604;48.616;9.548;2023-05-03T03:14:12;97633.09;;;6.88;100.00
9139;BME280;4604;48.616;9.548;2023-05-03T03:16:39;97625.59;;;6.82;100.00
9139;BME280;4604;48.616;9.548;2023-05-03T03:19:05;97623.53;;;6.87;100.00
9139;BME280;4604;48.616;9.548;2023-05-03T03:21:32;97624.19;;;6.91;100.00
9139;BME280;4604;48.616;9.548;2023-05-03T03:24:00;97619.97;;;6.88;100.00
9139;BME280;4604;48.616;9.548;2023-05-03T03:26:29;97616.69;;;6.84;100.00
9139;BME280;4604;48.616;9.548;2023-05-03T03:28:57;97620.16;;;6.85;100.00
9139;BME280;4604;48.616;9.548;2023-05-03T03:31:24;97612.50;;;6.82;100.00
9139;BME280;4604;48.616;9.548;2023-05-03T03:33:50;97624.78;;;6.81;100.00
9139;BME280;4604;48.616;9.548;2023-05-03T03:36:17;97618.69;;;6.81;100.00
9139;BME280;4604;48.616;9.548;2023-05-03T03:38:44;97622.34;;;6.78;100.00
9139;BME280;4604;48.616;9.548;2023-05-03T03:41:10;97614.84;;;6.72;100.00
9139;BME280;4604;48.616;9.548;2023-05-03T03:43:37;97608.03;;;6.70;100.00
9139;BME280;4604;48.616;9.548;2023-05-03T03:46:05;97613.19;;;6.71;100.00
9139;BME280;4604;48.616;9.548;2023-05-03T03:48:32;97617.97;;;6.64;100.00
9139;BME280;4604;48.616;9.548;2023-05-03T03:50:58;97610.50;;;6.58;100.00
9139;BME280;4604;48.616;9.548;2023-05-03T03:53:25;97619.84;;;6.62;100.00
9139;BME280;4604;48.616;9.548;2023-05-03T03:55:52;97613.97;;;6.59;100.00
9139;BME280;4604;48.616;9.548;2023-05-03T03:58:18;97621.19;;;6.55;100.00
9139;BME280;4604;48.616;9.548;2023-05-03T04:00:45;97624.84;;;6.53;100.00
9139;BME280;4604;48.616;9.548;2023-05-03T04:03:14;97630.19;;;6.51;100.00
9139;BME280;4604;48.616;9.548;2023-05-03T04:05:41;97628.41;;;6.52;100.00
9139;BME280;4604;48.616;9.548;2023-05-03T04:08:07;97627.66;;;6.50;100.00
9139;BME280;4604;48.616;9.548;2023-05-03T04:10:34;97622.69;;;6.45;100.00
9139;BME280;4604;48.616;9.548;2023-05-03T04:13:01;97628.91;;;6.44;100.00
9139;BME280;4604;48.616;9.548;2023-05-03T04:15:27;97628.91;;;6.44;100.00
9139;BME280;4604;48.616;9.548;2023-05-03T04:17:54;97632.34;;;6.45;100.00
9139;BME280;4604;48.616;9.548;2023-05-03T04:20:22;97642.91;;;6.43;100.00
9139;BME280;4604;48.616;9.548;2023-05-03T04:22:48;97646.50;;;6.42;100.00
9139;BME280;4604;48.616;9.548;2023-05-03T04:25:15;97635.88;;;6.43;100.00
9139;BME280;4604;48.616;9.548;2023-05-03T04:27:43;97651.19;;;6.37;100.00
9139;BME280;4604;48.616;9.548;2023-05-03T04:30:10;97653.81;;;6.37;100.00
9139;BME280;4604;48.616;9.548;2023-05-03T04:32:39;97653.69;;;6.38;100.00
9139;BME280;4604;48.616;9.548;2023-05-03T04:35:08;97656.22;;;6.40;100.00
9139;BME280;4604;48.616;9.548;2023-05-03T04:37:36;97662.50;;;6.37;100.00
9139;BME280;4604;48.616;9.548;2023-05-03T04:40:04;97665.03;;;6.39;100.00
9139;BME280;4604;48.616;9.548;2023-05-03T04:42:34;97669.69;;;6.34;100.00
9139;BME280;4604;48.616;9.548;2023-05-03T04:45:01;97680.31;;;6.32;100.00
9139;BME280;4604;48.616;9.548;2023-05-03T04:47:28;97681.50;;;6.27;100.00
9139;BME280;4604;48.616;9.548;2023-05-03T04:49:55;97684.59;;;6.33;100.00
9139;BME280;4604;48.616;9.548;2023-05-03T04:52:22;97680.88;;;6.37;100.00
9139;BME280;4604;48.616;9.548;2023-05-03T04:54:50;97680.66;;;6.40;100.00
9139;BME280;4604;48.616;9.548;2023-05-03T04:57:17;97689.38;;;6.41;100.00
9139;BME280;4604;48.616;9.548;2023-05-03T04:59:43;97688.34;;;6.43;100.00
9139;BME280;4604;48.616;9.548;2023-05-03T05:02:10;97697.50;;;6.51;100.00
9139;BME280;4604;48.616;9.548;2023-05-03T05:04:37;97692.66;;;6.59;100.00
9139;BME280;4604;48.616;9.548;2023-05-03T05:07:03;97696.38;;;6.69;100.00
9139;BME280;4604;48.616;9.548;2023-05-03T05:09:30;97700.09;;;6.79;100.00
9139;BME280;4604;48.616;9.548;2023-05-03T05:11:58;97696.16;;;6.86;100.00
9139;BME280;4604;48.616;9.548;2023-05-03T05:14:26;97697.44;;;6.94;100.00
9139;BME280;4604;48.616;9.548;2023-05-03T05:16:53;97696.03;;;7.02;100.00
9139;BME280;4604;48.616;9.548;2023-05-03T05:19:20;97697.13;;;7.13;100.00
9139;BME280;4604;48.616;9.548;2023-05-03T05:21:46;97701.88;;;7.20;100.00
9139;BME280;4604;48.616;9.548;2023-05-03T05:24:13;97696.88;;;7.30;100.00
9139;BME280;4604;48.616;9.548;2023-05-03T05:26:41;97694.69;;;7.37;100.00
9139;BME280;4604;48.616;9.548;2023-05-03T05:29:09;97690.28;;;7.37;100.00
9139;BME280;4604;48.616;9.548;2023-05-03T05:31:36;97692.69;;;7.40;100.00
9139;BME280;4604;48.616;9.548;2023-05-03T05:34:05;97690.09;;;7.53;100.00
9139;BME280;4604;48.616;9.548;2023-05-03T05:36:32;97690.44;;;7.61;100.00
9139;BME280;4604;48.616;9.548;2023-05-03T05:38:58;97689.41;;;7.77;100.00
9139;BME280;4604;48.616;9.548;2023-05-03T05:41:25;97691.13;;;7.90;100.00
9139;BME280;4604;48.616;9.548;2023-05-03T05:43:52;97692.72;;;8.06;100.00
9139;BME280;4604;48.616;9.548;2023-05-03T05:46:20;97689.16;;;8.20;100.00
9139;BME280;4604;48.616;9.548;2023-05-03T05:48:46;97699.66;;;8.32;100.00
9139;BME280;4604;48.616;9.548;2023-05-03T05:51:15;97701.16;;;8.49;100.00
9139;BME280;4604;48.616;9.548;2023-05-03T05:53:42;97696.19;;;8.57;100.00
9139;BME280;4604;48.616;9.548;2023-05-03T05:56:08;97698.69;;;8.72;100.00
9139;BME280;4604;48.616;9.548;2023-05-03T05:58:35;97695.81;;;8.75;100.00
9139;BME280;4604;48.616;9.548;2023-05-03T06:01:02;97694.44;;;8.95;100.00
9139;BME280;4604;48.616;9.548;2023-05-03T06:03:32;97696.19;;;9.07;100.00
9139;BME280;4604;48.616;9.548;2023-05-03T06:05:58;97695.03;;;8.98;100.00
9139;BME280;4604;48.616;9.548;2023-05-03T06:08:27;97701.38;;;9.20;100.00
9139;BME280;4604;48.616;9.548;2023-05-03T06:10:54;97697.78;;;9.21;100.00
9139;BME280;4604;48.616;9.548;2023-05-03T06:13:21;97695.63;;;9.39;100.00
9139;BME280;4604;48.616;9.548;2023-05-03T06:15:47;97702.16;;;9.57;100.00
9139;BME280;4604;48.616;9.548;2023-05-03T06:18:14;97692.03;;;9.40;100.00
9139;BME280;4604;48.616;9.548;2023-05-03T06:20:42;97691.84;;;9.54;100.00
9139;BME280;4604;48.616;9.548;2023-05-03T06:23:08;97688.59;;;9.51;100.00
9139;BME280;4604;48.616;9.548;2023-05-03T06:25:35;97686.31;;;9.81;100.00
9139;BME280;4604;48.616;9.548;2023-05-03T06:28:02;97682.22;;;9.77;100.00
9139;BME280;4604;48.616;9.548;2023-05-03T06:30:28;97680.31;;;9.79;100.00
9139;BME280;4604;48.616;9.548;2023-05-03T06:32:55;97687.03;;;9.83;100.00
9139;BME280;4604;48.616;9.548;2023-05-03T06:35:22;97683.84;;;10.02;100.00
9139;BME280;4604;48.616;9.548;2023-05-03T06:37:50;97679.66;;;10.00;100.00
9139;BME280;4604;48.616;9.548;2023-05-03T06:40:17;97684.59;;;10.16;100.00
9139;BME280;4604;48.616;9.548;2023-05-03T06:42:43;97691.47;;;10.41;100.00
9139;BME280;4604;48.616;9.548;2023-05-03T06:45:10;97682.13;;;10.37;100.00
9139;BME280;4604;48.616;9.548;2023-05-03T06:47:37;97668.16;;;10.23;100.00
9139;BME280;4604;48.616;9.548;2023-05-03T06:50:04;97681.16;;;10.38;100.00
9139;BME280;4604;48.616;9.548;2023-05-03T06:52:31;97671.09;;;10.54;100.00
9139;BME280;4604;48.616;9.548;2023-05-03T06:54:59;97678.25;;;10.75;100.00
9139;BME280;4604;48.616;9.548;2023-05-03T06:57:26;97674.91;;;10.84;100.00
9139;BME280;4604;48.616;9.548;2023-05-03T06:59:53;97679.69;;;10.90;100.00
9139;BME280;4604;48.616;9.548;2023-05-03T07:02:19;97677.84;;;11.02;100.00
9139;BME280;4604;48.616;9.548;2023-05-03T07:04:46;97672.81;;;11.10;100.00
9139;BME280;4604;48.616;9.548;2023-05-03T07:07:13;97671.19;;;11.30;100.00
9139;BME280;4604;48.616;9.548;2023-05-03T07:09:40;97675.03;;;11.26;100.00
9139;BME280;4604;48.616;9.548;2023-05-03T07:12:08;97681.59;;;11.43;100.00
9139;BME280;4604;48.616;9.548;2023-05-03T07:14:35;97673.09;;;11.60;100.00
9139;BME280;4604;48.616;9.548;2023-05-03T07:17:02;97673.78;;;11.73;100.00
9139;BME280;4604;48.616;9.548;2023-05-03T07:19:29;97672.00;;;11.63;99.76
9139;BME280;4604;48.616;9.548;2023-05-03T07:21:56;97672.91;;;11.52;99.80
9139;BME280;4604;48.616;9.548;2023-05-03T07:24:23;97667.09;;;11.58;98.54
9139;BME280;4604;48.616;9.548;2023-05-03T07:26:50;97665.31;;;11.79;99.26
9139;BME280;4604;48.616;9.548;2023-05-03T07:29:18;97659.97;;;12.12;98.18
9139;BME280;4604;48.616;9.548;2023-05-03T07:31:45;97661.53;;;11.93;97.93
9139;BME280;4604;48.616;9.548;2023-05-03T07:34:11;97664.19;;;12.14;97.81
9139;BME280;4604;48.616;9.548;2023-05-03T07:36:39;97666.31;;;11.99;96.83
9139;BME280;4604;48.616;9.548;2023-05-03T07:39:06;97660.91;;;12.01;98.31
9139;BME280;4604;48.616;9.548;2023-05-03T07:41:41;97653.78;;;12.02;99.81
9139;BME280;4604;48.616;9.548;2023-05-03T07:44:07;97645.50;;;12.37;95.62
9139;BME280;4604;48.616;9.548;2023-05-03T07:46:36;97644.25;;;12.41;94.84
9139;BME280;4604;48.616;9.548;2023-05-03T07:49:03;97656.19;;;12.66;96.20
9139;BME280;4604;48.616;9.548;2023-05-03T07:51:37;97650.09;;;12.75;92.75
9139;BME280;4604;48.616;9.548;2023-05-03T07:54:04;97645.28;;;13.10;88.79
9139;BME280;4604;48.616;9.548;2023-05-03T07:56:31;97646.56;;;13.25;87.56
9139;BME280;4604;48.616;9.548;2023-05-03T07:58:57;97643.19;;;13.13;88.18
9139;BME280;4604;48.616;9.548;2023-05-03T08:01:24;97648.78;;;13.10;87.66
9139;BME280;4604;48.616;9.548;2023-05-03T08:03:52;97637.88;;;13.03;88.39
9139;BME280;4604;48.616;9.548;2023-05-03T08:06:19;97633.34;;;13.35;87.49
9139;BME280;4604;48.616;9.548;2023-05-03T08:08:46;97636.94;;;13.63;86.32
9139;BME280;4604;48.616;9.548;2023-05-03T08:11:12;97636.28;;;13.70;83.81
9139;BME280;4604;48.616;9.548;2023-05-03T08:13:39;97632.22;;;13.76;83.93
9139;BME280;4604;48.616;9.548;2023-05-03T08:16:06;97635.78;;;13.95;84.68
9139;BME280;4604;48.616;9.548;2023-05-03T08:18:33;97630.91;;;14.09;81.85
9139;BME280;4604;48.616;9.548;2023-05-03T08:21:01;97644.00;;;14.11;81.49
9139;BME280;4604;48.616;9.548;2023-05-03T08:23:27;97641.09;;;13.95;81.36
9139;BME280;4604;48.616;9.548;2023-05-03T08:25:54;97643.63;;;13.86;82.81
9139;BME280;4604;48.616;9.548;2023-05-03T08:28:21;97647.09;;;13.97;83.64
9139;BME280;4604;48.616;9.548;2023-05-03T08:30:47;97645.00;;;14.10;83.98
9139;BME280;4604;48.616;9.548;2023-05-03T08:33:14;97642.78;;;14.43;82.46
9139;BME280;4604;48.616;9.548;2023-05-03T08:35:40;97649.31;;;14.48;82.39
9139;BME280;4604;48.616;9.548;2023-05-03T08:38:08;97653.97;;;14.46;82.00
9139;BME280;4604;48.616;9.548;2023-05-03T08:40:35;97649.66;;;14.35;79.37
9139;BME280;4604;48.616;9.548;2023-05-03T08:43:07;97652.72;;;14.41;78.80
9139;BME280;4604;48.616;9.548;2023-05-03T08:45:40;97653.91;;;14.19;79.69
9139;BME280;4604;48.616;9.548;2023-05-03T08:48:06;97651.97;;;14.11;81.02
9139;BME280;4604;48.616;9.548;2023-05-03T08:50:34;97656.97;;;14.24;79.91
9139;BME280;4604;48.616;9.548;2023-05-03T08:53:06;97651.91;;;14.30;81.05
9139;BME280;4604;48.616;9.548;2023-05-03T08:55:34;97652.22;;;14.27;80.62
9139;BME280;4604;48.616;9.548;2023-05-03T08:58:02;97654.94;;;14.45;79.99
9139;BME280;4604;48.616;9.548;2023-05-03T09:00:29;97649.63;;;14.55;78.90
9139;BME280;4604;48.616;9.548;2023-05-03T09:02:55;97645.69;;;14.49;79.42
9139;BME280;4604;48.616;9.548;2023-05-03T09:05:32;97659.25;;;14.66;79.33
9139;BME280;4604;48.616;9.548;2023-05-03T09:08:00;97652.53;;;14.62;78.32
9139;BME280;4604;48.616;9.548;2023-05-03T09:10:28;97637.78;;;14.40;79.02
9139;BME280;4604;48.616;9.548;2023-05-03T09:12:58;97654.97;;;14.35;79.81
9139;BME280;4604;48.616;9.548;2023-05-03T09:15:26;97656.91;;;14.43;81.33
9139;BME280;4604;48.616;9.548;2023-05-03T09:18:12;97645.00;;;14.57;79.54
9139;BME280;4604;48.616;9.548;2023-05-03T09:20:41;97653.81;;;14.58;80.90
9139;BME280;4604;48.616;9.548;2023-05-03T09:23:16;97666.38;;;14.55;78.09
9139;BME280;4604;48.616;9.548;2023-05-03T09:25:46;97655.75;;;14.46;79.27
9139;BME280;4604;48.616;9.548;2023-05-03T09:28:15;97652.75;;;14.31;81.10
9139;BME280;4604;48.616;9.548;2023-05-03T09:30:45;97654.63;;;14.48;80.60
9139;BME280;4604;48.616;9.548;2023-05-03T09:33:12;97653.31;;;14.72;79.70
9139;BME280;4604;48.616;9.548;2023-05-03T09:35:55;97657.66;;;14.73;82.03
9139;BME280;4604;48.616;9.548;2023-05-03T09:38:26;97654.09;;;14.54;81.96
9139;BME280;4604;48.616;9.548;2023-05-03T09:40:53;97650.53;;;14.73;78.25
9139;BME280;4604;48.616;9.548;2023-05-03T09:43:21;97651.22;;;14.75;77.86
9139;BME280;4604;48.616;9.548;2023-05-03T09:45:48;97653.28;;;14.82;78.22
9139;BME280;4604;48.616;9.548;2023-05-03T09:48:17;97642.66;;;14.99;81.43
9139;BME280;4604;48.616;9.548;2023-05-03T09:50:48;97646.25;;;15.08;79.99
9139;BME280;4604;48.616;9.548;2023-05-03T09:53:15;97644.53;;;15.35;78.87
9139;BME280;4604;48.616;9.548;2023-05-03T09:55:43;97648.97;;;15.44;77.06
9139;BME280;4604;48.616;9.548;2023-05-03T09:58:10;97643.41;;;15.19;76.88
9139;BME280;4604;48.616;9.548;2023-05-03T10:00:39;97647.19;;;15.17;77.82
9139;BME280;4604;48.616;9.548;2023-05-03T10:03:09;97642.47;;;15.29;78.83
9139;BME280;4604;48.616;9.548;2023-05-03T10:05:41;97636.25;;;15.38;79.60
9139;BME280;4604;48.616;9.548;2023-05-03T10:08:09;97639.16;;;15.45;74.62
9139;BME280;4604;48.616;9.548;2023-05-03T10:10:39;97637.69;;;15.50;76.46
9139;BME280;4604;48.616;9.548;2023-05-03T10:13:08;97635.78;;;15.60;74.48
9139;BME280;4604;48.616;9.548;2023-05-03T10:15:38;97632.66;;;15.65;75.97
9139;BME280;4604;48.616;9.548;2023-05-03T10:18:09;97639.69;;;15.66;73.17
9139;BME280;4604;48.616;9.548;2023-05-03T10:20:40;97629.97;;;15.39;73.68
9139;BME280;4604;48.616;9.548;2023-05-03T10:23:10;97631.47;;;15.41;77.05
9139;BME280;4604;48.616;9.548;2023-05-03T10:25:37;97632.97;;;15.62;72.82
9139;BME280;4604;48.616;9.548;2023-05-03T10:28:05;97625.94;;;15.35;74.72
9139;BME280;4604;48.616;9.548;2023-05-03T10:30:33;97621.97;;;15.39;75.97
9139;BME280;4604;48.616;9.548;2023-05-03T10:33:29;97627.97;;;15.59;74.04
9139;BME280;4604;48.616;9.548;2023-05-03T10:35:57;97628.25;;;15.92;73.04
9139;BME280;4604;48.616;9.548;2023-05-03T10:38:26;97622.03;;;15.83;70.40
9139;BME280;4604;48.616;9.548;2023-05-03T10:40:54;97625.50;;;15.75;72.93
9139;BME280;4604;48.616;9.548;2023-05-03T10:43:40;97624.84;;;15.63;70.71
9139;BME280;4604;48.616;9.548;2023-05-03T10:46:09;97617.66;;;15.56;72.38
9139;BME280;4604;48.616;9.548;2023-05-03T10:49:15;97619.56;;;15.90;71.99
9139;BME280;4604;48.616;9.548;2023-05-03T10:51:42;97612.72;;;16.05;70.35
9139;BME280;4604;48.616;9.548;2023-05-03T10:54:09;97621.78;;;15.94;69.09
9139;BME280;4604;48.616;9.548;2023-05-03T10:56:49;97612.38;;;15.82;69.52
9139;BME280;4604;48.616;9.548;2023-05-03T10:59:16;97612.06;;;15.67;71.06
9139;BME280;4604;48.616;9.548;2023-05-03T11:01:44;97613.28;;;15.55;69.93
9139;BME280;4604;48.616;9.548;2023-05-03T11:04:14;97611.41;;;15.83;68.92
9139;BME280;4604;48.616;9.548;2023-05-03T11:06:49;97604.38;;;16.00;69.21
9139;BME280;4604;48.616;9.548;2023-05-03T11:09:29;97615.03;;;15.82;69.49
9139;BME280;4604;48.616;9.548;2023-05-03T11:11:56;97613.59;;;15.88;67.65
9139;BME280;4604;48.616;9.548;2023-05-03T11:14:22;97609.72;;;15.82;66.71
9139;BME280;4604;48.616;9.548;2023-05-03T11:16:51;97608.28;;;15.70;67.90
9139;BME280;4604;48.616;9.548;2023-05-03T11:19:21;97601.84;;;15.98;67.27
9139;BME280;4604;48.616;9.548;2023-05-03T11:21:51;97610.78;;;16.15;69.28
9139;BME280;4604;48.616;9.548;2023-05-03T11:24:17;97600.81;;;16.52;67.76
9139;BME280;4604;48.616;9.548;2023-05-03T11:26:45;97604.47;;;16.93;63.33
9139;BME280;4604;48.616;9.548;2023-05-03T11:29:13;97598.34;;;17.01;60.79
9139;BME280;4604;48.616;9.548;2023-05-03T11:31:41;97597.88;;;17.22;60.86
9139;BME280;4604;48.616;9.548;2023-05-03T11:34:08;97591.06;;;17.44;61.94
9139;BME280;4604;48.616;9.548;2023-05-03T11:36:35;97590.91;;;17.53;60.41
9139;BME280;4604;48.616;9.548;2023-05-03T11:39:03;97582.72;;;17.63;59.93
9139;BME280;4604;48.616;9.548;2023-05-03T11:41:33;97588.06;;;17.71;57.55
9139;BME280;4604;48.616;9.548;2023-05-03T11:44:00;97587.72;;;17.50;56.59
9139;BME280;4604;48.616;9.548;2023-05-03T11:46:27;97589.22;;;17.44;57.90
9139;BME280;4604;48.616;9.548;2023-05-03T11:48:55;97582.03;;;17.53;57.39
9139;BME280;4604;48.616;9.548;2023-05-03T11:51:23;97582.53;;;17.65;52.89
9139;BME280;4604;48.616;9.548;2023-05-03T11:53:50;97577.84;;;17.75;57.29
9139;BME280;4604;48.616;9.548;2023-05-03T11:56:18;97579.69;;;17.74;53.89
9139;BME280;4604;48.616;9.548;2023-05-03T11:58:51;97577.72;;;17.68;53.66
9139;BME280;4604;48.616;9.548;2023-05-03T12:01:21;97566.38;;;17.50;51.72
9139;BME280;4604;48.616;9.548;2023-05-03T12:03:52;97575.88;;;17.20;52.84
9139;BME280;4604;48.616;9.548;2023-05-03T12:06:19;97587.31;;;17.04;54.31
9139;BME280;4604;48.616;9.548;2023-05-03T12:08:46;97565.53;;;17.25;52.20
9139;BME280;4604;48.616;9.548;2023-05-03T12:11:12;97573.88;;;17.46;51.39
9139;BME280;4604;48.616;9.548;2023-05-03T12:13:40;97565.53;;;17.58;52.21
9139;BME280;4604;48.616;9.548;2023-05-03T12:16:08;97555.84;;;17.73;51.53
9139;BME280;4604;48.616;9.548;2023-05-03T12:18:46;97548.50;;;17.91;54.22
9139;BME280;4604;48.616;9.548;2023-05-03T12:21:15;97553.63;;;18.17;51.73
9139;BME280;4604;48.616;9.548;2023-05-03T12:23:42;97554.53;;;18.41;52.67
9139;BME280;4604;48.616;9.548;2023-05-03T12:26:08;97551.16;;;18.47;51.70
9139;BME280;4604;48.616;9.548;2023-05-03T12:28:35;97545.28;;;18.52;52.79
9139;BME280;4604;48.616;9.548;2023-05-03T12:31:03;97545.59;;;18.57;52.57
9139;BME280;4604;48.616;9.548;2023-05-03T12:33:30;97539.16;;;18.83;51.51
9139;BME280;4604;48.616;9.548;2023-05-03T12:35:57;97527.81;;;18.80;49.47
9139;BME280;4604;48.616;9.548;2023-05-03T12:38:24;97534.53;;;18.68;50.95
9139;BME280;4604;48.616;9.548;2023-05-03T12:40:51;97535.06;;;18.95;50.47
9139;BME280;4604;48.616;9.548;2023-05-03T12:43:18;97529.78;;;19.10;52.58
9139;BME280;4604;48.616;9.548;2023-05-03T12:45:45;97534.75;;;18.90;47.53
9139;BME280;4604;48.616;9.548;2023-05-03T12:48:13;97534.88;;;18.96;49.52
9139;BME280;4604;48.616;9.548;2023-05-03T12:50:40;97522.47;;;19.03;45.32
9139;BME280;4604;48.616;9.548;2023-05-03T12:53:06;97540.59;;;18.93;48.55
9139;BME280;4604;48.616;9.548;2023-05-03T12:55:33;97535.06;;;18.55;48.53
9139;BME280;4604;48.616;9.548;2023-05-03T12:58:00;97526.84;;;18.65;48.99
9139;BME280;4604;48.616;9.548;2023-05-03T13:00:26;97521.69;;;18.95;49.50
9139;BME280;4604;48.616;9.548;2023-05-03T13:02:53;97533.72;;;19.22;47.51
9139;BME280;4604;48.616;9.548;2023-05-03T13:05:21;97529.72;;;19.18;44.81
9139;BME280;4604;48.616;9.548;2023-05-03T13:07:49;97531.06;;;19.14;46.01
9139;BME280;4604;48.616;9.548;2023-05-03T13:10:18;97535.97;;;19.10;45.39
9139;BME280;4604;48.616;9.548;2023-05-03T13:12:45;97525.13;;;19.03;44.64
9139;BME280;4604;48.616;9.548;2023-05-03T13:15:13;97514.91;;;19.30;44.95
9139;BME280;4604;48.616;9.548;2023-05-03T13:17:40;97521.91;;;19.54;42.56
9139;BME280;4604;48.616;9.548;2023-05-03T13:20:08;97515.47;;;19.40;44.09
9139;BME280;4604;48.616;9.548;2023-05-03T13:22:39;97512.34;;;19.14;44.53
9139;BME280;4604;48.616;9.548;2023-05-03T13:25:06;97512.00;;;18.94;44.78
9139;BME280;4604;48.616;9.548;2023-05-03T13:27:34;97512.28;;;18.76;45.35